sensor_id;sensor_type;location;lat;lon;timestamp;P1;durP1;ratioP1;P2;durP2;ratioP2
75887;SDS011;64562;55.662;37.300;2022-12-17T00:00:59;4.03;;;3.03;;
75887;SDS011;64562;55.662;37.300;2022-12-17T00:03:43;4.70;;;3.15;;
75887;SDS011;64562;55.662;37.300;2022-12-17T00:06:29;5.70;;;3.88;;
75887;SDS011;64562;55.662;37.300;2022-12-17T00:09:13;4.50;;;3.20;;
75887;SDS011;64562;55.662;37.300;2022-12-17T00:11:57;4.70;;;3.28;;
75887;SDS011;64562;55.662;37.300;2022-12-17T00:14:41;4.75;;;3.67;;
75887;SDS011;64562;55.662;37.300;2022-12-17T00:17:25;5.13;;;3.75;;
75887;SDS011;64562;55.662;37.300;2022-12-17T00:20:09;5.53;;;3.50;;
75887;SDS011;64562;55.662;37.300;2022-12-17T00:22:58;5.20;;;3.58;;
75887;SDS011;64562;55.662;37.300;2022-12-17T00:25:42;5.28;;;3.40;;
75887;SDS011;64562;55.662;37.300;2022-12-17T00:28:26;4.85;;;3.42;;
75887;SDS011;64562;55.662;37.300;2022-12-17T00:31:10;5.28;;;3.75;;
75887;SDS011;64562;55.662;37.300;2022-12-17T00:33:54;4.95;;;3.42;;
75887;SDS011;64562;55.662;37.300;2022-12-17T00:36:38;6.03;;;3.78;;
75887;SDS011;64562;55.662;37.300;2022-12-17T00:39:23;5.18;;;3.53;;
75887;SDS011;64562;55.662;37.300;2022-12-17T00:42:07;6.05;;;3.75;;
75887;SDS011;64562;55.662;37.300;2022-12-17T00:44:51;5.72;;;3.47;;
75887;SDS011;64562;55.662;37.300;2022-12-17T00:47:35;6.00;;;3.65;;
75887;SDS011;64562;55.662;37.300;2022-12-17T00:50:19;6.38;;;4.35;;
75887;SDS011;64562;55.662;37.300;2022-12-17T00:53:03;6.45;;;4.07;;
75887;SDS011;64562;55.662;37.300;2022-12-17T00:55:48;5.97;;;3.85;;
75887;SDS011;64562;55.662;37.300;2022-12-17T00:58:32;6.28;;;3.65;;
75887;SDS011;64562;55.662;37.300;2022-12-17T01:01:16;5.20;;;3.45;;
75887;SDS011;64562;55.662;37.300;2022-12-17T01:04:00;5.47;;;3.42;;
75887;SDS011;64562;55.662;37.300;2022-12-17T01:06:44;6.40;;;3.80;;
75887;SDS011;64562;55.662;37.300;2022-12-17T01:09:28;4.80;;;3.20;;
75887;SDS011;64562;55.662;37.300;2022-12-17T01:12:15;6.45;;;3.45;;
75887;SDS011;64562;55.662;37.300;2022-12-17T01:14:59;7.90;;;3.45;;
75887;SDS011;64562;55.662;37.300;2022-12-17T01:17:43;6.70;;;3.33;;
75887;SDS011;64562;55.662;37.300;2022-12-17T01:20:27;4.55;;;2.97;;
75887;SDS011;64562;55.662;37.300;2022-12-17T01:23:11;4.47;;;3.13;;
75887;SDS011;64562;55.662;37.300;2022-12-17T01:25:55;5.03;;;4.05;;
75887;SDS011;64562;55.662;37.300;2022-12-17T01:28:41;4.43;;;3.10;;
75887;SDS011;64562;55.662;37.300;2022-12-17T01:31:25;4.25;;;3.20;;
75887;SDS011;64562;55.662;37.300;2022-12-17T01:34:09;4.78;;;3.35;;
75887;SDS011;64562;55.662;37.300;2022-12-17T01:36:53;4.20;;;3.25;;
75887;SDS011;64562;55.662;37.300;2022-12-17T01:39:37;3.83;;;3.03;;
75887;SDS011;64562;55.662;37.300;2022-12-17T01:42:21;5.63;;;3.05;;
75887;SDS011;64562;55.662;37.300;2022-12-17T01:45:15;4.82;;;3.03;;
75887;SDS011;64562;55.662;37.300;2022-12-17T01:48:00;5.53;;;3.38;;
75887;SDS011;64562;55.662;37.300;2022-12-17T01:50:45;4.80;;;2.90;;
75887;SDS011;64562;55.662;37.300;2022-12-17T01:53:34;5.30;;;3.33;;
75887;SDS011;64562;55.662;37.300;2022-12-17T01:56:18;4.78;;;3.15;;
75887;SDS011;64562;55.662;37.300;2022-12-17T01:59:02;4.65;;;3.10;;
75887;SDS011;64562;55.662;37.300;2022-12-17T02:01:48;4.68;;;3.10;;
75887;SDS011;64562;55.662;37.300;2022-12-17T02:04:32;5.38;;;3.50;;
75887;SDS011;64562;55.662;37.300;2022-12-17T02:07:19;4.13;;;2.97;;
75887;SDS011;64562;55.662;37.300;2022-12-17T02:10:07;4.35;;;2.90;;
75887;SDS011;64562;55.662;37.300;2022-12-17T02:12:54;6.07;;;3.00;;
75887;SDS011;64562;55.662;37.300;2022-12-17T02:15:43;5.13;;;3.13;;
75887;SDS011;64562;55.662;37.300;2022-12-17T02:18:30;4.28;;;3.10;;
75887;SDS011;64562;55.662;37.300;2022-12-17T02:21:15;5.18;;;3.45;;
75887;SDS011;64562;55.662;37.300;2022-12-17T02:24:01;4.25;;;3.00;;
75887;SDS011;64562;55.662;37.300;2022-12-17T02:26:50;5.03;;;3.28;;
75887;SDS011;64562;55.662;37.300;2022-12-17T02:29:36;4.40;;;3.03;;
75887;SDS011;64562;55.662;37.300;2022-12-17T02:32:21;4.63;;;3.10;;
75887;SDS011;64562;55.662;37.300;2022-12-17T02:35:09;5.35;;;3.75;;
75887;SDS011;64562;55.662;37.300;2022-12-17T02:37:55;4.22;;;3.05;;
75887;SDS011;64562;55.662;37.300;2022-12-17T02:40:39;4.40;;;2.78;;
75887;SDS011;64562;55.662;37.300;2022-12-17T02:43:40;5.38;;;3.30;;
75887;SDS011;64562;55.662;37.300;2022-12-17T02:46:24;4.30;;;3.17;;
75887;SDS011;64562;55.662;37.300;2022-12-17T02:49:09;3.70;;;2.90;;
75887;SDS011;64562;55.662;37.300;2022-12-17T02:51:53;4.68;;;3.13;;
75887;SDS011;64562;55.662;37.300;2022-12-17T02:54:38;4.30;;;3.10;;
75887;SDS011;64562;55.662;37.300;2022-12-17T02:57:22;4.40;;;3.25;;
75887;SDS011;64562;55.662;37.300;2022-12-17T03:00:08;5.30;;;3.30;;
75887;SDS011;64562;55.662;37.300;2022-12-17T03:02:52;4.57;;;3.17;;
75887;SDS011;64562;55.662;37.300;2022-12-17T03:05:36;4.90;;;3.05;;
75887;SDS011;64562;55.662;37.300;2022-12-17T03:08:20;5.72;;;3.28;;
75887;SDS011;64562;55.662;37.300;2022-12-17T03:11:15;4.00;;;2.93;;
75887;SDS011;64562;55.662;37.300;2022-12-17T03:13:59;4.47;;;3.05;;
75887;SDS011;64562;55.662;37.300;2022-12-17T03:16:45;4.90;;;2.90;;
75887;SDS011;64562;55.662;37.300;2022-12-17T03:19:29;4.97;;;3.20;;
75887;SDS011;64562;55.662;37.300;2022-12-17T03:22:13;4.07;;;2.92;;
75887;SDS011;64562;55.662;37.300;2022-12-17T03:24:57;4.13;;;2.63;;
75887;SDS011;64562;55.662;37.300;2022-12-17T03:27:41;4.47;;;3.40;;
75887;SDS011;64562;55.662;37.300;2022-12-17T03:30:33;4.93;;;3.28;;
75887;SDS011;64562;55.662;37.300;2022-12-17T03:33:19;3.75;;;2.78;;
75887;SDS011;64562;55.662;37.300;2022-12-17T03:36:03;4.38;;;3.30;;
75887;SDS011;64562;55.662;37.300;2022-12-17T03:39:02;4.10;;;2.83;;
75887;SDS011;64562;55.662;37.300;2022-12-17T03:41:46;4.95;;;3.35;;
75887;SDS011;64562;55.662;37.300;2022-12-17T03:44:30;4.60;;;3.42;;
75887;SDS011;64562;55.662;37.300;2022-12-17T03:47:23;4.07;;;3.00;;
75887;SDS011;64562;55.662;37.300;2022-12-17T03:50:08;3.67;;;2.80;;
75887;SDS011;64562;55.662;37.300;2022-12-17T03:52:53;4.00;;;3.08;;
75887;SDS011;64562;55.662;37.300;2022-12-17T03:55:37;5.30;;;3.30;;
75887;SDS011;64562;55.662;37.300;2022-12-17T03:58:20;5.80;;;3.63;;
75887;SDS011;64562;55.662;37.300;2022-12-17T04:01:04;4.32;;;3.10;;
75887;SDS011;64562;55.662;37.300;2022-12-17T04:03:48;4.85;;;3.00;;
75887;SDS011;64562;55.662;37.300;2022-12-17T04:06:34;5.38;;;3.25;;
75887;SDS011;64562;55.662;37.300;2022-12-17T04:09:18;3.85;;;3.00;;
75887;SDS011;64562;55.662;37.300;2022-12-17T04:12:02;4.80;;;2.88;;
75887;SDS011;64562;55.662;37.300;2022-12-17T04:14:45;4.90;;;2.95;;
75887;SDS011;64562;55.662;37.300;2022-12-17T04:17:29;4.50;;;3.08;;
75887;SDS011;64562;55.662;37.300;2022-12-17T04:20:13;4.13;;;2.92;;
75887;SDS011;64562;55.662;37.300;2022-12-17T04:22:59;4.60;;;2.90;;
75887;SDS011;64562;55.662;37.300;2022-12-17T04:25:43;4.78;;;3.20;;
75887;SDS011;64562;55.662;37.300;2022-12-17T04:28:27;4.88;;;3.10;;
75887;SDS011;64562;55.662;37.300;2022-12-17T04:31:11;5.07;;;3.35;;
75887;SDS011;64562;55.662;37.300;2022-12-17T04:33:54;3.92;;;2.90;;
75887;SDS011;64562;55.662;37.300;2022-12-17T04:36:38;4.50;;;3.08;;
75887;SDS011;64562;55.662;37.300;2022-12-17T04:39:23;4.07;;;2.92;;
75887;SDS011;64562;55.662;37.300;2022-12-17T04:42:08;5.28;;;3.58;;
75887;SDS011;64562;55.662;37.300;2022-12-17T04:44:51;4.38;;;3.03;;
75887;SDS011;64562;55.662;37.300;2022-12-17T04:47:35;5.18;;;3.05;;
75887;SDS011;64562;55.662;37.300;2022-12-17T04:50:19;4.32;;;3.13;;
75887;SDS011;64562;55.662;37.300;2022-12-17T04:53:00;4.20;;;2.90;;
75887;SDS011;64562;55.662;37.300;2022-12-17T04:55:46;4.90;;;3.22;;
75887;SDS011;64562;55.662;37.300;2022-12-17T04:58:30;3.90;;;2.65;;
75887;SDS011;64562;55.662;37.300;2022-12-17T05:01:14;4.10;;;3.03;;
75887;SDS011;64562;55.662;37.300;2022-12-17T05:03:58;4.30;;;3.20;;
75887;SDS011;64562;55.662;37.300;2022-12-17T05:06:41;3.92;;;2.90;;
75887;SDS011;64562;55.662;37.300;2022-12-17T05:09:31;5.20;;;3.13;;
75887;SDS011;64562;55.662;37.300;2022-12-17T05:12:28;4.78;;;2.90;;
75887;SDS011;64562;55.662;37.300;2022-12-17T05:15:12;4.18;;;3.45;;
75887;SDS011;64562;55.662;37.300;2022-12-17T05:18:02;4.18;;;2.58;;
75887;SDS011;64562;55.662;37.300;2022-12-17T05:20:46;4.15;;;2.95;;
75887;SDS011;64562;55.662;37.300;2022-12-17T05:23:30;5.15;;;3.05;;
75887;SDS011;64562;55.662;37.300;2022-12-17T05:26:16;4.93;;;2.90;;
75887;SDS011;64562;55.662;37.300;2022-12-17T05:29:02;3.85;;;2.70;;
75887;SDS011;64562;55.662;37.300;2022-12-17T05:31:47;4.80;;;3.17;;
75887;SDS011;64562;55.662;37.300;2022-12-17T05:34:31;4.20;;;3.33;;
75887;SDS011;64562;55.662;37.300;2022-12-17T05:37:15;4.18;;;2.88;;
75887;SDS011;64562;55.662;37.300;2022-12-17T05:39:59;4.10;;;2.88;;
75887;SDS011;64562;55.662;37.300;2022-12-17T05:42:52;4.13;;;2.80;;
75887;SDS011;64562;55.662;37.300;2022-12-17T05:45:38;4.25;;;2.90;;
75887;SDS011;64562;55.662;37.300;2022-12-17T05:48:30;3.47;;;2.42;;
75887;SDS011;64562;55.662;37.300;2022-12-17T05:51:15;4.15;;;2.67;;
75887;SDS011;64562;55.662;37.300;2022-12-17T05:53:59;3.20;;;2.60;;
75887;SDS011;64562;55.662;37.300;2022-12-17T05:56:43;3.70;;;2.85;;
75887;SDS011;64562;55.662;37.300;2022-12-17T05:59:27;4.25;;;2.78;;
75887;SDS011;64562;55.662;37.300;2022-12-17T06:02:12;4.10;;;2.95;;
75887;SDS011;64562;55.662;37.300;2022-12-17T06:04:56;4.15;;;2.65;;
75887;SDS011;64562;55.662;37.300;2022-12-17T06:07:40;3.63;;;2.67;;
75887;SDS011;64562;55.662;37.300;2022-12-17T06:10:24;4.28;;;2.85;;
75887;SDS011;64562;55.662;37.300;2022-12-17T06:13:05;4.07;;;2.80;;
75887;SDS011;64562;55.662;37.300;2022-12-17T06:15:49;3.40;;;2.65;;
75887;SDS011;64562;55.662;37.300;2022-12-17T06:18:35;4.05;;;3.03;;
75887;SDS011;64562;55.662;37.300;2022-12-17T06:21:19;3.72;;;2.80;;
75887;SDS011;64562;55.662;37.300;2022-12-17T06:24:03;3.72;;;2.53;;
75887;SDS011;64562;55.662;37.300;2022-12-17T06:26:47;3.78;;;2.90;;
75887;SDS011;64562;55.662;37.300;2022-12-17T06:29:31;4.03;;;3.00;;
75887;SDS011;64562;55.662;37.300;2022-12-17T06:32:15;5.03;;;2.97;;
75887;SDS011;64562;55.662;37.300;2022-12-17T06:35:01;4.60;;;2.90;;
75887;SDS011;64562;55.662;37.300;2022-12-17T06:37:45;3.75;;;2.58;;
75887;SDS011;64562;55.662;37.300;2022-12-17T06:40:29;4.28;;;2.53;;
75887;SDS011;64562;55.662;37.300;2022-12-17T06:43:13;4.22;;;3.13;;
75887;SDS011;64562;55.662;37.300;2022-12-17T06:45:57;3.88;;;3.25;;
75887;SDS011;64562;55.662;37.300;2022-12-17T06:48:46;3.85;;;2.90;;
75887;SDS011;64562;55.662;37.300;2022-12-17T06:51:31;4.57;;;2.88;;
75887;SDS011;64562;55.662;37.300;2022-12-17T06:54:15;3.50;;;2.78;;
75887;SDS011;64562;55.662;37.300;2022-12-17T06:56:59;4.35;;;3.05;;
75887;SDS011;64562;55.662;37.300;2022-12-17T06:59:43;4.07;;;3.00;;
75887;SDS011;64562;55.662;37.300;2022-12-17T07:02:42;4.22;;;2.70;;
75887;SDS011;64562;55.662;37.300;2022-12-17T07:05:26;3.33;;;2.53;;
75887;SDS011;64562;55.662;37.300;2022-12-17T07:08:11;4.03;;;2.90;;
75887;SDS011;64562;55.662;37.300;2022-12-17T07:10:57;3.40;;;2.40;;
75887;SDS011;64562;55.662;37.300;2022-12-17T07:13:41;4.18;;;2.97;;
75887;SDS011;64562;55.662;37.300;2022-12-17T07:16:25;4.30;;;3.00;;
75887;SDS011;64562;55.662;37.300;2022-12-17T07:19:09;4.32;;;2.95;;
75887;SDS011;64562;55.662;37.300;2022-12-17T07:21:53;3.72;;;2.72;;
75887;SDS011;64562;55.662;37.300;2022-12-17T07:24:39;4.88;;;3.00;;
75887;SDS011;64562;55.662;37.300;2022-12-17T07:27:38;3.80;;;2.55;;
75887;SDS011;64562;55.662;37.300;2022-12-17T07:30:22;4.18;;;2.78;;
75887;SDS011;64562;55.662;37.300;2022-12-17T07:33:06;4.68;;;3.03;;
75887;SDS011;64562;55.662;37.300;2022-12-17T07:35:51;3.83;;;2.97;;
75887;SDS011;64562;55.662;37.300;2022-12-17T07:38:35;4.25;;;2.90;;
75887;SDS011;64562;55.662;37.300;2022-12-17T07:41:20;3.97;;;2.67;;
75887;SDS011;64562;55.662;37.300;2022-12-17T07:44:04;4.03;;;2.67;;
75887;SDS011;64562;55.662;37.300;2022-12-17T07:46:48;3.72;;;2.78;;
75887;SDS011;64562;55.662;37.300;2022-12-17T07:49:32;4.47;;;2.83;;
75887;SDS011;64562;55.662;37.300;2022-12-17T07:52:16;4.18;;;2.80;;
75887;SDS011;64562;55.662;37.300;2022-12-17T07:55:00;4.60;;;3.00;;
75887;SDS011;64562;55.662;37.300;2022-12-17T07:57:45;3.72;;;2.67;;
75887;SDS011;64562;55.662;37.300;2022-12-17T08:00:29;4.22;;;2.92;;
75887;SDS011;64562;55.662;37.300;2022-12-17T08:03:13;4.25;;;2.80;;
75887;SDS011;64562;55.662;37.300;2022-12-17T08:05:57;4.57;;;2.90;;
75887;SDS011;64562;55.662;37.300;2022-12-17T08:08:41;4.97;;;3.20;;
75887;SDS011;64562;55.662;37.300;2022-12-17T08:11:25;4.30;;;3.03;;
75887;SDS011;64562;55.662;37.300;2022-12-17T08:14:11;4.68;;;3.05;;
75887;SDS011;64562;55.662;37.300;2022-12-17T08:16:55;4.18;;;2.70;;
75887;SDS011;64562;55.662;37.300;2022-12-17T08:19:38;4.35;;;3.17;;
75887;SDS011;64562;55.662;37.300;2022-12-17T08:22:22;4.10;;;2.90;;
75887;SDS011;64562;55.662;37.300;2022-12-17T08:25:06;4.22;;;2.70;;
75887;SDS011;64562;55.662;37.300;2022-12-17T08:27:53;4.07;;;3.42;;
75887;SDS011;64562;55.662;37.300;2022-12-17T08:30:39;3.42;;;2.65;;
75887;SDS011;64562;55.662;37.300;2022-12-17T08:33:32;4.30;;;2.55;;
75887;SDS011;64562;55.662;37.300;2022-12-17T08:36:24;4.53;;;2.78;;
75887;SDS011;64562;55.662;37.300;2022-12-17T08:39:08;3.17;;;2.55;;
75887;SDS011;64562;55.662;37.300;2022-12-17T08:41:52;4.65;;;2.58;;
75887;SDS011;64562;55.662;37.300;2022-12-17T08:44:36;4.40;;;2.58;;
75887;SDS011;64562;55.662;37.300;2022-12-17T08:47:22;3.78;;;2.35;;
75887;SDS011;64562;55.662;37.300;2022-12-17T08:50:06;5.63;;;2.70;;
75887;SDS011;64562;55.662;37.300;2022-12-17T08:52:55;3.40;;;2.38;;
75887;SDS011;64562;55.662;37.300;2022-12-17T08:55:39;4.60;;;2.80;;
75887;SDS011;64562;55.662;37.300;2022-12-17T08:58:23;4.00;;;2.88;;
75887;SDS011;64562;55.662;37.300;2022-12-17T09:01:07;3.67;;;2.50;;
75887;SDS011;64562;55.662;37.300;2022-12-17T09:03:53;2.90;;;2.28;;
75887;SDS011;64562;55.662;37.300;2022-12-17T09:06:37;4.28;;;2.55;;
75887;SDS011;64562;55.662;37.300;2022-12-17T09:09:21;4.50;;;2.90;;
75887;SDS011;64562;55.662;37.300;2022-12-17T09:12:05;3.60;;;2.45;;
75887;SDS011;64562;55.662;37.300;2022-12-17T09:14:48;3.88;;;2.58;;
75887;SDS011;64562;55.662;37.300;2022-12-17T09:17:33;3.65;;;2.83;;
75887;SDS011;64562;55.662;37.300;2022-12-17T09:20:18;4.18;;;3.03;;
75887;SDS011;64562;55.662;37.300;2022-12-17T09:23:02;4.70;;;2.60;;
75887;SDS011;64562;55.662;37.300;2022-12-17T09:25:50;4.72;;;3.17;;
75887;SDS011;64562;55.662;37.300;2022-12-17T09:28:34;4.88;;;3.00;;
75887;SDS011;64562;55.662;37.300;2022-12-17T09:31:18;5.47;;;3.25;;
75887;SDS011;64562;55.662;37.300;2022-12-17T09:34:02;4.82;;;2.92;;
75887;SDS011;64562;55.662;37.300;2022-12-17T09:36:48;5.18;;;2.90;;
75887;SDS011;64562;55.662;37.300;2022-12-17T09:39:32;3.63;;;2.63;;
75887;SDS011;64562;55.662;37.300;2022-12-17T09:42:17;4.82;;;3.25;;
75887;SDS011;64562;55.662;37.300;2022-12-17T09:45:03;3.65;;;2.65;;
75887;SDS011;64562;55.662;37.300;2022-12-17T09:47:51;4.30;;;2.85;;
75887;SDS011;64562;55.662;37.300;2022-12-17T09:50:36;4.95;;;2.80;;
75887;SDS011;64562;55.662;37.300;2022-12-17T09:53:23;12.55;;;2.80;;
75887;SDS011;64562;55.662;37.300;2022-12-17T09:56:09;4.60;;;2.95;;
75887;SDS011;64562;55.662;37.300;2022-12-17T09:58:54;4.35;;;2.95;;
75887;SDS011;64562;55.662;37.300;2022-12-17T10:01:38;3.92;;;2.55;;
75887;SDS011;64562;55.662;37.300;2022-12-17T10:04:23;4.57;;;3.03;;
75887;SDS011;64562;55.662;37.300;2022-12-17T10:07:12;4.03;;;2.83;;
75887;SDS011;64562;55.662;37.300;2022-12-17T10:09:58;4.47;;;2.80;;
75887;SDS011;64562;55.662;37.300;2022-12-17T10:12:44;5.03;;;3.08;;
75887;SDS011;64562;55.662;37.300;2022-12-17T10:15:43;4.40;;;3.00;;
75887;SDS011;64562;55.662;37.300;2022-12-17T10:18:27;4.22;;;2.85;;
75887;SDS011;64562;55.662;37.300;2022-12-17T10:21:11;5.38;;;2.78;;
75887;SDS011;64562;55.662;37.300;2022-12-17T10:24:03;4.10;;;2.97;;
75887;SDS011;64562;55.662;37.300;2022-12-17T10:26:49;6.68;;;3.15;;
75887;SDS011;64562;55.662;37.300;2022-12-17T10:29:35;4.28;;;2.90;;
75887;SDS011;64562;55.662;37.300;2022-12-17T10:32:20;4.15;;;3.10;;
75887;SDS011;64562;55.662;37.300;2022-12-17T10:35:08;3.92;;;2.70;;
75887;SDS011;64562;55.662;37.300;2022-12-17T10:37:55;4.43;;;2.92;;
75887;SDS011;64562;55.662;37.300;2022-12-17T10:40:39;3.80;;;2.80;;
75887;SDS011;64562;55.662;37.300;2022-12-17T10:43:25;4.55;;;2.80;;
75887;SDS011;64562;55.662;37.300;2022-12-17T10:46:10;4.78;;;3.17;;
75887;SDS011;64562;55.662;37.300;2022-12-17T10:49:04;4.13;;;2.70;;
75887;SDS011;64562;55.662;37.300;2022-12-17T10:51:48;4.72;;;3.30;;
75887;SDS011;64562;55.662;37.300;2022-12-17T10:54:33;4.45;;;3.08;;
75887;SDS011;64562;55.662;37.300;2022-12-17T10:57:21;4.18;;;2.90;;
75887;SDS011;64562;55.662;37.300;2022-12-17T11:00:17;4.40;;;3.10;;
75887;SDS011;64562;55.662;37.300;2022-12-17T11:03:04;5.40;;;2.80;;
75887;SDS011;64562;55.662;37.300;2022-12-17T11:05:48;5.97;;;2.97;;
75887;SDS011;64562;55.662;37.300;2022-12-17T11:08:33;4.93;;;2.90;;
75887;SDS011;64562;55.662;37.300;2022-12-17T11:11:17;5.38;;;3.30;;
75887;SDS011;64562;55.662;37.300;2022-12-17T11:14:01;3.88;;;3.00;;
75887;SDS011;64562;55.662;37.300;2022-12-17T11:16:48;5.15;;;3.00;;
75887;SDS011;64562;55.662;37.300;2022-12-17T11:19:35;4.63;;;2.83;;
75887;SDS011;64562;55.662;37.300;2022-12-17T11:22:22;5.05;;;2.78;;
75887;SDS011;64562;55.662;37.300;2022-12-17T11:25:17;4.35;;;3.15;;
75887;SDS011;64562;55.662;37.300;2022-12-17T11:28:04;5.75;;;3.00;;
75887;SDS011;64562;55.662;37.300;2022-12-17T11:30:53;5.32;;;3.28;;
75887;SDS011;64562;55.662;37.300;2022-12-17T11:33:41;5.75;;;3.42;;
75887;SDS011;64562;55.662;37.300;2022-12-17T11:36:32;3.78;;;2.83;;
75887;SDS011;64562;55.662;37.300;2022-12-17T11:39:21;5.63;;;3.08;;
75887;SDS011;64562;55.662;37.300;2022-12-17T11:44:52;4.68;;;2.90;;
75887;SDS011;64562;55.662;37.300;2022-12-17T11:47:40;4.93;;;2.88;;
75887;SDS011;64562;55.662;37.300;2022-12-17T11:50:30;5.88;;;3.15;;
75887;SDS011;64562;55.662;37.300;2022-12-17T11:53:21;4.15;;;2.92;;
75887;SDS011;64562;55.662;37.300;2022-12-17T11:56:09;4.20;;;2.95;;
75887;SDS011;64562;55.662;37.300;2022-12-17T11:58:56;3.00;;;2.50;;
75887;SDS011;64562;55.662;37.300;2022-12-17T12:01:43;4.35;;;3.03;;
75887;SDS011;64562;55.662;37.300;2022-12-17T12:04:46;4.43;;;3.05;;
75887;SDS011;64562;55.662;37.300;2022-12-17T12:07:39;5.20;;;2.92;;
75887;SDS011;64562;55.662;37.300;2022-12-17T12:13:11;6.40;;;3.00;;
75887;SDS011;64562;55.662;37.300;2022-12-17T12:16:00;5.10;;;3.42;;
75887;SDS011;64562;55.662;37.300;2022-12-17T12:18:50;5.40;;;3.45;;
75887;SDS011;64562;55.662;37.300;2022-12-17T12:21:39;4.60;;;3.20;;
75887;SDS011;64562;55.662;37.300;2022-12-17T12:24:30;5.03;;;3.50;;
75887;SDS011;64562;55.662;37.300;2022-12-17T12:27:17;4.07;;;2.83;;
75887;SDS011;64562;55.662;37.300;2022-12-17T12:30:05;3.60;;;2.72;;
75887;SDS011;64562;55.662;37.300;2022-12-17T12:32:54;4.80;;;2.65;;
75887;SDS011;64562;55.662;37.300;2022-12-17T12:35:42;4.70;;;3.30;;
75887;SDS011;64562;55.662;37.300;2022-12-17T12:38:27;6.70;;;2.90;;
75887;SDS011;64562;55.662;37.300;2022-12-17T12:41:20;4.60;;;2.95;;
75887;SDS011;64562;55.662;37.300;2022-12-17T12:44:07;4.20;;;2.90;;
75887;SDS011;64562;55.662;37.300;2022-12-17T12:46:57;5.07;;;2.90;;
75887;SDS011;64562;55.662;37.300;2022-12-17T12:49:43;5.28;;;2.50;;
75887;SDS011;64562;55.662;37.300;2022-12-17T12:52:28;3.78;;;2.70;;
75887;SDS011;64562;55.662;37.300;2022-12-17T12:55:12;5.82;;;2.75;;
75887;SDS011;64562;55.662;37.300;2022-12-17T12:57:59;4.20;;;2.63;;
75887;SDS011;64562;55.662;37.300;2022-12-17T13:00:50;5.00;;;3.10;;
75887;SDS011;64562;55.662;37.300;2022-12-17T13:03:36;5.00;;;3.22;;
75887;SDS011;64562;55.662;37.300;2022-12-17T13:06:37;5.43;;;3.35;;
75887;SDS011;64562;55.662;37.300;2022-12-17T13:09:05;5.47;;;3.10;;
75887;SDS011;64562;55.662;37.300;2022-12-17T13:11:35;6.13;;;3.42;;
75887;SDS011;64562;55.662;37.300;2022-12-17T13:14:05;8.13;;;3.22;;
75887;SDS011;64562;55.662;37.300;2022-12-17T13:16:39;4.20;;;2.67;;
75887;SDS011;64562;55.662;37.300;2022-12-17T13:19:16;4.28;;;2.90;;
75887;SDS011;64562;55.662;37.300;2022-12-17T13:21:43;5.10;;;2.70;;
75887;SDS011;64562;55.662;37.300;2022-12-17T13:24:11;5.75;;;2.88;;
75887;SDS011;64562;55.662;37.300;2022-12-17T13:26:42;5.68;;;3.17;;
75887;SDS011;64562;55.662;37.300;2022-12-17T13:29:12;5.43;;;2.92;;
75887;SDS011;64562;55.662;37.300;2022-12-17T13:31:47;5.90;;;2.63;;
75887;SDS011;64562;55.662;37.300;2022-12-17T13:34:17;6.68;;;3.03;;
75887;SDS011;64562;55.662;37.300;2022-12-17T13:36:48;5.13;;;3.10;;
75887;SDS011;64562;55.662;37.300;2022-12-17T13:39:26;5.75;;;3.10;;
75887;SDS011;64562;55.662;37.300;2022-12-17T13:41:55;6.57;;;2.90;;
75887;SDS011;64562;55.662;37.300;2022-12-17T13:44:23;5.22;;;2.80;;
75887;SDS011;64562;55.662;37.300;2022-12-17T13:46:51;7.07;;;2.97;;
75887;SDS011;64562;55.662;37.300;2022-12-17T13:49:18;5.53;;;2.78;;
75887;SDS011;64562;55.662;37.300;2022-12-17T13:51:46;19.48;;;5.65;;
75887;SDS011;64562;55.662;37.300;2022-12-17T13:54:14;15.20;;;4.47;;
75887;SDS011;64562;55.662;37.300;2022-12-17T13:56:41;13.75;;;4.10;;
75887;SDS011;64562;55.662;37.300;2022-12-17T13:59:15;9.18;;;3.67;;
75887;SDS011;64562;55.662;37.300;2022-12-17T14:01:44;10.55;;;3.97;;
75887;SDS011;64562;55.662;37.300;2022-12-17T14:04:18;10.27;;;3.70;;
75887;SDS011;64562;55.662;37.300;2022-12-17T14:06:45;9.38;;;3.78;;
75887;SDS011;64562;55.662;37.300;2022-12-17T14:09:12;8.88;;;3.67;;
75887;SDS011;64562;55.662;37.300;2022-12-17T14:11:40;11.07;;;3.80;;
75887;SDS011;64562;55.662;37.300;2022-12-17T14:14:25;9.68;;;3.30;;
75887;SDS011;64562;55.662;37.300;2022-12-17T14:16:55;9.18;;;3.90;;
75887;SDS011;64562;55.662;37.300;2022-12-17T14:19:22;8.48;;;3.53;;
75887;SDS011;64562;55.662;37.300;2022-12-17T14:21:49;6.80;;;3.83;;
75887;SDS011;64562;55.662;37.300;2022-12-17T14:24:17;10.40;;;4.47;;
75887;SDS011;64562;55.662;37.300;2022-12-17T14:26:48;9.13;;;3.70;;
75887;SDS011;64562;55.662;37.300;2022-12-17T14:29:20;5.95;;;3.50;;
75887;SDS011;64562;55.662;37.300;2022-12-17T14:31:50;8.65;;;3.70;;
75887;SDS011;64562;55.662;37.300;2022-12-17T14:34:18;8.05;;;3.83;;
75887;SDS011;64562;55.662;37.300;2022-12-17T14:36:45;8.98;;;3.80;;
75887;SDS011;64562;55.662;37.300;2022-12-17T14:39:16;7.22;;;3.58;;
75887;SDS011;64562;55.662;37.300;2022-12-17T14:41:43;9.00;;;3.53;;
75887;SDS011;64562;55.662;37.300;2022-12-17T14:44:28;6.78;;;3.50;;
75887;SDS011;64562;55.662;37.300;2022-12-17T14:47:05;7.50;;;3.20;;
75887;SDS011;64562;55.662;37.300;2022-12-17T14:49:34;6.18;;;3.55;;
75887;SDS011;64562;55.662;37.300;2022-12-17T14:54:29;7.00;;;3.60;;
75887;SDS011;64562;55.662;37.300;2022-12-17T14:56:56;8.45;;;4.45;;
75887;SDS011;64562;55.662;37.300;2022-12-17T14:59:24;10.65;;;3.35;;
75887;SDS011;64562;55.662;37.300;2022-12-17T15:01:52;7.13;;;3.50;;
75887;SDS011;64562;55.662;37.300;2022-12-17T15:04:19;7.35;;;3.30;;
75887;SDS011;64562;55.662;37.300;2022-12-17T15:06:47;5.20;;;3.45;;
75887;SDS011;64562;55.662;37.300;2022-12-17T15:09:14;7.70;;;4.10;;
75887;SDS011;64562;55.662;37.300;2022-12-17T15:11:41;6.90;;;3.53;;
75887;SDS011;64562;55.662;37.300;2022-12-17T15:14:08;6.43;;;3.28;;
75887;SDS011;64562;55.662;37.300;2022-12-17T15:16:34;7.45;;;3.33;;
75887;SDS011;64562;55.662;37.300;2022-12-17T15:19:01;7.22;;;3.65;;
75887;SDS011;64562;55.662;37.300;2022-12-17T15:21:28;7.30;;;3.53;;
75887;SDS011;64562;55.662;37.300;2022-12-17T15:23:56;8.73;;;3.63;;
75887;SDS011;64562;55.662;37.300;2022-12-17T15:26:23;8.75;;;4.00;;
75887;SDS011;64562;55.662;37.300;2022-12-17T15:28:51;8.23;;;3.97;;
75887;SDS011;64562;55.662;37.300;2022-12-17T15:31:18;8.02;;;3.58;;
75887;SDS011;64562;55.662;37.300;2022-12-17T15:33:45;6.80;;;3.83;;
75887;SDS011;64562;55.662;37.300;2022-12-17T15:36:12;8.63;;;4.07;;
75887;SDS011;64562;55.662;37.300;2022-12-17T15:38:39;7.82;;;4.03;;
75887;SDS011;64562;55.662;37.300;2022-12-17T15:41:10;6.88;;;4.15;;
75887;SDS011;64562;55.662;37.300;2022-12-17T15:43:54;10.88;;;4.60;;
75887;SDS011;64562;55.662;37.300;2022-12-17T15:46:21;8.70;;;4.75;;
75887;SDS011;64562;55.662;37.300;2022-12-17T15:48:48;9.55;;;5.07;;
75887;SDS011;64562;55.662;37.300;2022-12-17T15:51:17;8.48;;;5.43;;
75887;SDS011;64562;55.662;37.300;2022-12-17T15:53:45;9.35;;;5.38;;
75887;SDS011;64562;55.662;37.300;2022-12-17T15:56:18;10.02;;;5.82;;
75887;SDS011;64562;55.662;37.300;2022-12-17T15:58:45;13.95;;;7.22;;
75887;SDS011;64562;55.662;37.300;2022-12-17T16:01:12;14.25;;;7.40;;
75887;SDS011;64562;55.662;37.300;2022-12-17T16:03:39;15.40;;;7.82;;
75887;SDS011;64562;55.662;37.300;2022-12-17T16:06:10;14.27;;;8.13;;
75887;SDS011;64562;55.662;37.300;2022-12-17T16:08:37;13.60;;;7.43;;
75887;SDS011;64562;55.662;37.300;2022-12-17T16:11:06;14.55;;;8.30;;